createdAt,value
2023-06-18T00:01:14.947Z,12.90
2023-06-18T00:03:59.092Z,12.60
2023-06-18T00:06:27.504Z,13.90
2023-06-18T00:08:55.805Z,13.00
2023-06-18T00:11:24.072Z,11.60
2023-06-18T00:13:52.315Z,12.00
2023-06-18T00:16:20.898Z,14.40
2023-06-18T00:18:49.153Z,15.00
2023-06-18T00:21:17.816Z,14.60
2023-06-18T00:23:46.100Z,17.30
2023-06-18T00:26:14.593Z,20.70
2023-06-18T00:28:53.630Z,14.80
2023-06-18T00:31:21.928Z,15.80
2023-06-18T00:33:50.241Z,14.90
2023-06-18T00:36:21.538Z,15.80
2023-06-18T00:38:52.495Z,15.40
2023-06-18T00:41:20.882Z,15.80
2023-06-18T00:43:49.119Z,13.50
2023-06-18T00:46:18.533Z,11.60
2023-06-18T00:48:46.827Z,14.50
2023-06-18T00:51:17.662Z,15.60
2023-06-18T00:53:46.944Z,14.60
2023-06-18T00:56:15.470Z,14.40
2023-06-18T00:58:43.760Z,11.90
2023-06-18T01:01:12.054Z,15.60
2023-06-18T01:03:40.925Z,14.80
2023-06-18T01:06:18.528Z,14.20
2023-06-18T01:08:50.761Z,14.50
2023-06-18T01:11:23.103Z,17.30
2023-06-18T01:13:53.580Z,15.40
2023-06-18T01:16:25.693Z,13.50
2023-06-18T01:18:56.571Z,19.10
2023-06-18T01:21:31.778Z,15.20
2023-06-18T01:24:21.241Z,16.60
2023-06-18T01:26:49.836Z,16.70
2023-06-18T01:29:18.351Z,10.20
2023-06-18T01:31:46.642Z,10.90
2023-06-18T01:34:14.996Z,11.60
2023-06-18T01:37:10.936Z,12.00
2023-06-18T01:39:53.942Z,12.50
2023-06-18T01:42:26.014Z,11.70
2023-06-18T01:45:10.314Z,11.70
2023-06-18T01:47:41.872Z,16.20
2023-06-18T01:50:12.398Z,12.90
2023-06-18T01:52:44.401Z,16.10
2023-06-18T01:55:15.858Z,12.30
2023-06-18T01:57:44.323Z,11.70
2023-06-18T02:00:13.125Z,12.90
2023-06-18T02:02:45.701Z,14.70
2023-06-18T02:05:14.254Z,16.40
2023-06-18T02:07:42.499Z,13.20
2023-06-18T02:10:11.323Z,14.80
2023-06-18T02:12:39.568Z,17.40
2023-06-18T02:15:09.887Z,10.90
2023-06-18T02:17:41.746Z,17.00
2023-06-18T02:20:11.842Z,14.20
2023-06-18T02:22:43.027Z,20.20
2023-06-18T02:25:31.523Z,19.80
2023-06-18T02:28:01.628Z,16.80
2023-06-18T02:30:32.683Z,15.20
2023-06-18T02:33:04.133Z,15.00
2023-06-18T02:35:40.015Z,20.90
2023-06-18T02:38:08.385Z,17.50
2023-06-18T02:40:36.741Z,20.10
2023-06-18T02:43:07.180Z,20.20
2023-06-18T02:45:35.864Z,16.70
2023-06-18T02:48:04.311Z,13.80
2023-06-18T02:50:32.698Z,13.70
2023-06-18T02:53:01.235Z,16.50
2023-06-18T02:55:32.864Z,20.30
2023-06-18T02:58:03.813Z,16.20
2023-06-18T03:00:32.640Z,17.80
2023-06-18T03:03:01.185Z,17.90
2023-06-18T03:05:32.400Z,19.00
2023-06-18T03:08:00.994Z,16.50
2023-06-18T03:10:29.380Z,15.50
2023-06-18T03:12:58.026Z,19.70
2023-06-18T03:15:37.472Z,18.20
2023-06-18T03:18:07.062Z,21.30
2023-06-18T03:20:57.329Z,17.40
2023-06-18T03:23:26.300Z,17.00
2023-06-18T03:25:54.963Z,14.30
2023-06-18T03:28:27.219Z,22.90
2023-06-18T03:30:55.479Z,19.40
2023-06-18T03:33:31.432Z,15.70
2023-06-18T03:36:40.500Z,18.20
2023-06-18T03:39:10.870Z,17.30
2023-06-18T03:41:59.376Z,17.40
2023-06-18T03:44:27.824Z,20.00
2023-06-18T03:46:56.621Z,18.70
2023-06-18T03:49:25.072Z,15.80
2023-06-18T03:51:53.487Z,19.00
2023-06-18T03:54:25.676Z,19.10
2023-06-18T03:56:54.590Z,21.90
2023-06-18T03:59:23.257Z,18.30
2023-06-18T04:01:51.788Z,18.80
2023-06-18T04:04:20.439Z,18.10
2023-06-18T04:06:48.759Z,14.70
2023-06-18T04:09:18.807Z,17.90
2023-06-18T04:11:49.302Z,15.00
2023-06-18T04:14:17.563Z,14.60
2023-06-18T04:16:46.687Z,17.50
2023-06-18T04:19:14.986Z,15.70
2023-06-18T04:21:43.509Z,22.70
2023-06-18T04:24:12.056Z,16.00
2023-06-18T04:26:40.901Z,20.30
2023-06-18T04:29:09.370Z,22.70
2023-06-18T04:31:37.759Z,16.90
2023-06-18T04:34:07.045Z,19.20
2023-06-18T04:36:35.871Z,20.30
2023-06-18T04:39:04.628Z,16.40
2023-06-18T04:41:33.016Z,20.40
2023-06-18T04:44:01.688Z,17.00
2023-06-18T04:46:30.959Z,17.80
2023-06-18T04:49:00.675Z,25.00
2023-06-18T04:51:29.354Z,21.00
2023-06-18T04:53:57.725Z,20.80
2023-06-18T04:56:27.425Z,17.70
2023-06-18T04:58:56.744Z,14.90
2023-06-18T05:01:24.978Z,17.50
2023-06-18T05:03:54.304Z,18.10
2023-06-18T05:06:22.704Z,16.40
2023-06-18T05:08:51.951Z,14.20
2023-06-18T05:11:20.139Z,15.90
2023-06-18T05:13:49.053Z,14.50
2023-06-18T05:16:17.512Z,13.90
2023-06-18T05:18:46.065Z,11.20
2023-06-18T05:21:16.928Z,14.20
2023-06-18T05:23:46.214Z,14.10
2023-06-18T05:26:15.044Z,12.60
2023-06-18T05:28:43.309Z,15.40
2023-06-18T05:31:12.394Z,12.90
2023-06-18T05:33:40.882Z,13.20
2023-06-18T05:36:09.528Z,13.00
2023-06-18T05:38:37.974Z,13.80
2023-06-18T05:41:06.654Z,12.60
2023-06-18T05:43:35.073Z,14.20
2023-06-18T05:46:03.550Z,16.60
2023-06-18T05:48:32.362Z,14.40
2023-06-18T05:51:21.093Z,13.30
2023-06-18T05:53:49.443Z,14.90
2023-06-18T05:56:17.875Z,14.00
2023-06-18T05:58:56.099Z,16.80
2023-06-18T06:01:24.699Z,16.30
2023-06-18T06:03:54.034Z,18.10
2023-06-18T06:06:22.544Z,17.00
2023-06-18T06:08:50.828Z,14.80
2023-06-18T06:11:19.998Z,19.50
2023-06-18T06:13:49.134Z,14.20
2023-06-18T06:16:17.505Z,21.20
2023-06-18T06:18:55.108Z,13.50
2023-06-18T06:21:23.504Z,16.20
2023-06-18T06:23:51.811Z,15.40
2023-06-18T06:26:20.124Z,14.00
2023-06-18T06:28:48.356Z,12.00
2023-06-18T06:31:16.730Z,14.60
2023-06-18T06:33:45.042Z,11.80
2023-06-18T06:36:14.159Z,12.60
2023-06-18T06:38:43.490Z,14.20
2023-06-18T06:41:12.417Z,10.80
2023-06-18T06:43:41.571Z,12.50
2023-06-18T06:46:35.826Z,12.30
2023-06-18T06:49:30.292Z,11.80
2023-06-18T06:52:21.826Z,15.00
2023-06-18T06:54:50.738Z,14.60
2023-06-18T06:57:18.998Z,15.20
2023-06-18T06:59:47.680Z,12.60
2023-06-18T07:02:18.020Z,12.80
2023-06-18T07:04:49.208Z,17.50
2023-06-18T07:07:18.953Z,18.30
2023-06-18T07:09:47.493Z,12.60
2023-06-18T07:12:15.903Z,13.60
2023-06-18T07:14:51.735Z,16.10
2023-06-18T07:17:20.171Z,11.20
2023-06-18T07:19:48.458Z,12.10
2023-06-18T07:22:16.830Z,12.90
2023-06-18T07:24:45.204Z,12.20
2023-06-18T07:27:13.560Z,10.10
2023-06-18T07:29:42.060Z,11.50
2023-06-18T07:32:10.332Z,12.20
2023-06-18T07:34:38.611Z,17.50
2023-06-18T07:37:06.903Z,12.90
2023-06-18T07:39:35.122Z,10.80
2023-06-18T07:42:03.629Z,10.20
2023-06-18T07:44:31.978Z,12.20
2023-06-18T07:47:00.327Z,11.60
2023-06-18T07:49:28.756Z,10.40
2023-06-18T07:51:56.956Z,11.60
2023-06-18T07:54:25.411Z,10.20
2023-06-18T07:56:53.813Z,10.20
2023-06-18T07:59:25.003Z,10.70
2023-06-18T08:01:53.613Z,11.00
2023-06-18T08:04:21.916Z,10.10
2023-06-18T08:06:51.753Z,10.90
2023-06-18T08:09:20.209Z,10.40
2023-06-18T08:11:49.587Z,9.70
2023-06-18T08:14:17.934Z,12.10
2023-06-18T08:16:46.269Z,10.10
2023-06-18T08:19:14.586Z,10.00
2023-06-18T08:21:43.240Z,10.30
2023-06-18T08:24:11.670Z,12.20
2023-06-18T08:26:39.933Z,16.20
2023-06-18T08:29:08.220Z,14.60
2023-06-18T08:31:36.737Z,8.60
2023-06-18T08:34:04.871Z,12.30
2023-06-18T08:36:33.170Z,16.10
2023-06-18T08:39:01.599Z,11.60
2023-06-18T08:41:30.226Z,10.60
2023-06-18T08:44:00.656Z,9.90
2023-06-18T08:46:31.046Z,9.60
2023-06-18T08:49:01.863Z,8.20
2023-06-18T08:51:30.344Z,9.10
2023-06-18T08:54:20.044Z,9.30
2023-06-18T08:56:55.276Z,10.60
2023-06-18T08:59:24.002Z,9.00
2023-06-18T09:01:53.593Z,12.50
2023-06-18T09:04:23.833Z,16.00
2023-06-18T09:06:52.342Z,9.00
2023-06-18T09:09:22.586Z,9.60
2023-06-18T09:11:50.806Z,9.20
2023-06-18T09:14:20.235Z,9.20
2023-06-18T09:16:48.552Z,10.50
2023-06-18T09:19:17.557Z,9.90
2023-06-18T09:21:47.131Z,9.20
2023-06-18T09:24:23.873Z,9.60
2023-06-18T09:27:06.007Z,9.50
2023-06-18T09:29:35.615Z,11.70
2023-06-18T09:32:09.436Z,9.10
2023-06-18T09:34:39.094Z,9.30
2023-06-18T09:37:09.033Z,9.40
2023-06-18T09:39:40.118Z,9.60
2023-06-18T09:42:12.883Z,9.50
2023-06-18T09:44:46.504Z,9.70
2023-06-18T09:47:15.560Z,9.10
2023-06-18T09:49:54.025Z,8.60
2023-06-18T09:52:28.183Z,7.90
2023-06-18T09:54:57.632Z,8.70
2023-06-18T09:57:25.882Z,12.90
2023-06-18T10:00:13.543Z,7.90
2023-06-18T10:02:42.051Z,9.10
2023-06-18T10:05:10.337Z,8.90
2023-06-18T10:07:41.407Z,8.90
2023-06-18T10:10:17.458Z,9.60
2023-06-18T10:12:49.951Z,9.80
2023-06-18T10:15:24.668Z,7.90
2023-06-18T10:17:57.291Z,12.10
2023-06-18T10:20:28.279Z,7.40
2023-06-18T10:22:59.702Z,10.40
2023-06-18T10:25:31.941Z,10.70
2023-06-18T10:28:00.369Z,10.10
2023-06-18T10:30:29.253Z,8.20
2023-06-18T10:32:57.514Z,8.20
2023-06-18T10:35:26.567Z,7.60
2023-06-18T10:37:55.762Z,7.80
2023-06-18T10:40:24.476Z,8.20
2023-06-18T10:43:04.703Z,7.80
2023-06-18T10:45:32.991Z,7.60
2023-06-18T10:48:21.229Z,14.00
2023-06-18T10:51:19.180Z,7.50
2023-06-18T10:53:48.164Z,7.90
2023-06-18T10:56:17.495Z,6.90
2023-06-18T10:58:45.781Z,7.30
2023-06-18T11:01:29.266Z,7.20
2023-06-18T11:04:02.887Z,7.20
2023-06-18T11:06:31.631Z,7.00
2023-06-18T11:09:00.001Z,9.50
2023-06-18T11:11:32.164Z,7.40
2023-06-18T11:14:20.290Z,6.10
2023-06-18T11:17:11.312Z,6.80
2023-06-18T11:19:41.699Z,7.10
2023-06-18T11:22:10.417Z,8.00
2023-06-18T11:24:39.355Z,10.30
2023-06-18T11:27:08.176Z,6.90
2023-06-18T11:29:36.647Z,7.80
2023-06-18T11:32:13.126Z,5.60
2023-06-18T11:34:43.217Z,5.20
2023-06-18T11:37:11.960Z,5.40
2023-06-18T11:39:40.950Z,9.40
2023-06-18T11:42:16.742Z,5.90
2023-06-18T11:44:55.004Z,10.80
2023-06-18T11:47:23.856Z,6.30
2023-06-18T11:49:53.180Z,10.00
2023-06-18T11:52:23.093Z,5.70
2023-06-18T11:54:53.310Z,5.90
2023-06-18T11:57:23.854Z,5.30
2023-06-18T11:59:54.101Z,6.70
2023-06-18T12:02:24.818Z,5.10
2023-06-18T12:04:53.798Z,6.30
2023-06-18T12:07:23.982Z,4.70
2023-06-18T12:09:54.592Z,6.60
2023-06-18T12:12:49.036Z,5.60
2023-06-18T12:15:38.319Z,7.10
2023-06-18T12:18:13.544Z,6.50
2023-06-18T12:20:43.371Z,5.20
2023-06-18T12:23:15.841Z,6.60
2023-06-18T12:25:44.662Z,5.60
2023-06-18T12:28:13.084Z,8.40
2023-06-18T12:30:42.580Z,5.00
2023-06-18T12:33:13.307Z,6.30
2023-06-18T12:35:55.437Z,5.40
2023-06-18T12:38:24.199Z,5.20
2023-06-18T12:40:57.146Z,5.40
2023-06-18T12:43:25.665Z,5.70
2023-06-18T12:45:54.321Z,8.20
2023-06-18T12:48:28.074Z,4.90
2023-06-18T12:50:57.082Z,9.20
2023-06-18T12:53:28.359Z,12.90
2023-06-18T12:55:58.715Z,16.00
2023-06-18T12:58:28.936Z,12.50
2023-06-18T13:00:59.910Z,8.10
2023-06-18T13:03:29.434Z,15.20
2023-06-18T13:05:59.233Z,23.70
2023-06-18T13:08:27.870Z,14.50
2023-06-18T13:11:07.485Z,16.80
2023-06-18T13:13:35.843Z,10.40
2023-06-18T13:16:04.438Z,7.90
2023-06-18T13:18:36.496Z,8.20
2023-06-18T13:21:04.670Z,6.10
2023-06-18T13:23:32.858Z,6.30
2023-06-18T13:26:01.316Z,14.10
2023-06-18T13:28:29.620Z,7.30
2023-06-18T13:30:58.439Z,6.00
2023-06-18T13:33:26.676Z,7.50
2023-06-18T13:35:54.946Z,5.30
2023-06-18T13:38:23.141Z,7.70
2023-06-18T13:40:51.748Z,5.10
2023-06-18T13:43:20.837Z,7.10
2023-06-18T13:45:49.888Z,14.20
2023-06-18T13:48:18.370Z,5.30
2023-06-18T13:50:46.540Z,6.60
2023-06-18T13:53:14.753Z,10.80
2023-06-18T13:55:43.098Z,5.70
2023-06-18T13:58:11.828Z,10.50
2023-06-18T14:00:40.661Z,5.80
2023-06-18T14:03:09.016Z,5.70
2023-06-18T14:05:37.631Z,6.40
2023-06-18T14:08:08.915Z,5.70
2023-06-18T14:10:37.129Z,6.10
2023-06-18T14:13:05.439Z,6.70
2023-06-18T14:15:33.705Z,7.10
2023-06-18T14:18:02.117Z,8.40
2023-06-18T14:20:30.304Z,8.40
2023-06-18T14:22:58.614Z,5.60
2023-06-18T14:25:27.657Z,7.80
2023-06-18T14:27:56.531Z,7.10
2023-06-18T14:30:25.562Z,8.00
2023-06-18T14:32:53.956Z,6.30
2023-06-18T14:35:22.667Z,5.90
2023-06-18T14:37:51.409Z,4.20
2023-06-18T14:40:19.747Z,6.00
2023-06-18T14:42:48.474Z,3.60
2023-06-18T14:45:16.907Z,5.10
2023-06-18T14:47:45.565Z,5.10
2023-06-18T14:50:15.440Z,7.00
2023-06-18T14:52:43.760Z,3.50
2023-06-18T14:55:12.463Z,5.20
2023-06-18T14:57:40.989Z,5.60
2023-06-18T15:00:10.407Z,5.10
2023-06-18T15:02:39.227Z,5.80
2023-06-18T15:05:07.939Z,5.30
2023-06-18T15:07:37.770Z,5.10
2023-06-18T15:10:06.547Z,4.10
2023-06-18T15:12:34.933Z,5.80
2023-06-18T15:15:03.198Z,9.30
2023-06-18T15:17:31.572Z,4.00
2023-06-18T15:19:59.924Z,6.00
2023-06-18T15:22:28.248Z,4.20
2023-06-18T15:24:56.590Z,5.20
2023-06-18T15:27:24.969Z,5.20
2023-06-18T15:29:53.417Z,4.50
2023-06-18T15:32:22.858Z,5.80
2023-06-18T15:34:51.260Z,7.00
2023-06-18T15:37:19.586Z,7.20
2023-06-18T15:39:47.929Z,4.10
2023-06-18T15:42:18.226Z,5.70
2023-06-18T15:44:46.866Z,5.30
2023-06-18T15:47:18.142Z,6.10
2023-06-18T15:49:46.415Z,7.20
2023-06-18T15:52:16.297Z,4.30
2023-06-18T15:54:46.017Z,5.00
2023-06-18T15:57:14.683Z,6.80
2023-06-18T15:59:42.896Z,8.30
2023-06-18T16:02:11.271Z,9.10
2023-06-18T16:04:39.572Z,6.10
2023-06-18T16:07:07.881Z,9.80
2023-06-18T16:09:36.777Z,4.50
2023-06-18T16:12:05.635Z,4.40
2023-06-18T16:14:33.995Z,6.60
2023-06-18T16:17:02.358Z,8.40
2023-06-18T16:19:30.599Z,7.40
2023-06-18T16:21:58.871Z,4.30
2023-06-18T16:24:27.266Z,5.00
2023-06-18T16:26:55.555Z,11.60
2023-06-18T16:29:23.845Z,4.20
2023-06-18T16:31:52.147Z,5.60
2023-06-18T16:34:21.748Z,4.00
2023-06-18T16:36:49.987Z,7.10
2023-06-18T16:39:19.061Z,6.00
2023-06-18T16:41:47.250Z,5.70
2023-06-18T16:44:15.831Z,3.60
2023-06-18T16:46:44.422Z,6.20
2023-06-18T16:49:12.694Z,4.10
2023-06-18T16:51:42.042Z,4.40
2023-06-18T16:54:13.360Z,3.50
2023-06-18T16:56:41.777Z,3.00
2023-06-18T16:59:09.986Z,5.80
2023-06-18T17:01:38.423Z,6.10
2023-06-18T17:04:07.585Z,3.10
2023-06-18T17:06:36.010Z,4.90
2023-06-18T17:09:04.642Z,3.10
2023-06-18T17:11:34.493Z,3.30
2023-06-18T17:14:02.813Z,3.40
2023-06-18T17:16:31.099Z,4.20
2023-06-18T17:18:59.351Z,3.20
2023-06-18T17:21:27.641Z,3.50
2023-06-18T17:24:01.497Z,3.70
2023-06-18T17:26:30.469Z,3.70
2023-06-18T17:28:59.028Z,2.30
2023-06-18T17:31:30.120Z,5.70
2023-06-18T17:33:58.310Z,5.00
2023-06-18T17:36:26.572Z,5.40
2023-06-18T17:38:54.881Z,4.20
2023-06-18T17:41:23.232Z,5.20
2023-06-18T17:43:51.473Z,2.70
2023-06-18T17:46:22.085Z,2.50
2023-06-18T17:48:50.843Z,5.60
2023-06-18T17:51:19.145Z,2.60
2023-06-18T17:53:47.612Z,4.90
2023-06-18T17:56:16.194Z,4.50
2023-06-18T17:58:44.451Z,4.90
2023-06-18T18:01:13.996Z,3.70
2023-06-18T18:03:44.474Z,3.80
2023-06-18T18:06:14.865Z,4.20
2023-06-18T18:08:49.459Z,4.60
2023-06-18T18:11:21.402Z,3.60
2023-06-18T18:13:49.797Z,3.70
2023-06-18T18:16:18.262Z,4.40
2023-06-18T18:18:46.837Z,5.40
2023-06-18T18:21:16.342Z,5.20
2023-06-18T18:23:44.629Z,7.20
2023-06-18T18:26:13.488Z,4.70
2023-06-18T18:28:42.025Z,5.50
2023-06-18T18:31:10.340Z,5.20
2023-06-18T18:33:38.760Z,7.00
2023-06-18T18:36:07.862Z,7.80
2023-06-18T18:38:36.275Z,5.00
2023-06-18T18:41:04.659Z,6.30
2023-06-18T18:43:32.965Z,5.70
2023-06-18T18:46:01.513Z,5.40
2023-06-18T18:48:29.908Z,6.50
2023-06-18T18:50:58.212Z,8.20
2023-06-18T18:53:26.510Z,5.80
2023-06-18T18:55:55.402Z,6.40
2023-06-18T18:58:25.465Z,4.70
2023-06-18T19:00:53.856Z,4.20
2023-06-18T19:03:24.000Z,4.60
2023-06-18T19:05:53.135Z,4.10
2023-06-18T19:08:21.383Z,6.30
2023-06-18T19:10:50.065Z,3.60
2023-06-18T19:13:18.362Z,4.50
2023-06-18T19:15:46.593Z,3.50
2023-06-18T19:18:15.482Z,3.60
2023-06-18T19:20:43.784Z,5.00
2023-06-18T19:23:12.152Z,3.10
2023-06-18T19:25:40.511Z,2.80
2023-06-18T19:28:08.954Z,3.30
2023-06-18T19:30:39.567Z,3.80
2023-06-18T19:33:07.987Z,3.00
2023-06-18T19:35:36.525Z,4.40
2023-06-18T19:38:04.852Z,3.40
2023-06-18T19:40:33.206Z,3.60
2023-06-18T19:43:01.417Z,5.60
2023-06-18T19:45:29.745Z,5.50
2023-06-18T19:47:58.218Z,3.80
2023-06-18T19:50:26.707Z,3.90
2023-06-18T19:52:54.910Z,3.50
2023-06-18T19:55:23.182Z,6.00
2023-06-18T19:57:51.651Z,6.00
2023-06-18T20:00:20.333Z,5.00
2023-06-18T20:02:50.802Z,4.70
2023-06-18T20:05:19.815Z,5.10
2023-06-18T20:07:48.000Z,6.20
2023-06-18T20:10:16.221Z,5.70
2023-06-18T20:12:45.223Z,6.00
2023-06-18T20:15:15.156Z,8.70
2023-06-18T20:17:43.962Z,5.80
2023-06-18T20:20:13.228Z,5.30
2023-06-18T20:22:41.494Z,5.70
2023-06-18T20:25:09.979Z,5.40
2023-06-18T20:27:38.222Z,6.40
2023-06-18T20:30:07.382Z,4.10
2023-06-18T20:32:35.757Z,4.10
2023-06-18T20:35:04.911Z,4.00
2023-06-18T20:37:33.244Z,3.40
2023-06-18T20:40:01.548Z,5.30
2023-06-18T20:42:29.903Z,3.40
2023-06-18T20:44:58.172Z,4.20
2023-06-18T20:47:26.460Z,4.10
2023-06-18T20:49:54.700Z,5.80
2023-06-18T20:52:23.067Z,5.00
2023-06-18T20:54:51.307Z,5.40
2023-06-18T20:57:19.902Z,4.30
2023-06-18T20:59:50.530Z,8.40
2023-06-18T21:02:22.229Z,6.00
2023-06-18T21:04:50.581Z,4.80
2023-06-18T21:07:18.877Z,4.90
2023-06-18T21:09:47.069Z,5.00
2023-06-18T21:12:15.301Z,4.80
2023-06-18T21:14:43.602Z,4.90
2023-06-18T21:17:11.977Z,4.70
2023-06-18T21:19:40.245Z,4.90
2023-06-18T21:22:08.579Z,4.60
2023-06-18T21:24:36.973Z,6.40
2023-06-18T21:27:05.594Z,7.30
2023-06-18T21:29:33.855Z,6.70
2023-06-18T21:32:02.138Z,5.90
2023-06-18T21:34:30.387Z,7.60
2023-06-18T21:36:58.643Z,10.50
2023-06-18T21:39:27.030Z,5.80
2023-06-18T21:41:58.576Z,9.10
2023-06-18T21:44:27.039Z,5.80
2023-06-18T21:46:55.326Z,5.70
2023-06-18T21:49:23.661Z,6.00
2023-06-18T21:51:51.914Z,7.60
2023-06-18T21:54:20.290Z,5.90
2023-06-18T21:56:48.547Z,5.90
2023-06-18T21:59:16.946Z,5.50
2023-06-18T22:01:45.149Z,7.30
2023-06-18T22:04:14.409Z,5.60
2023-06-18T22:06:42.676Z,6.30
2023-06-18T22:09:11.012Z,6.10
2023-06-18T22:11:39.423Z,5.50
2023-06-18T22:14:07.669Z,8.80
2023-06-18T22:16:35.986Z,5.50
2023-06-18T22:19:12.140Z,5.60
2023-06-18T22:21:40.632Z,5.70
2023-06-18T22:24:11.327Z,6.90
2023-06-18T22:26:39.920Z,5.20
2023-06-18T22:29:08.718Z,5.40
2023-06-18T22:31:37.049Z,6.20
2023-06-18T22:34:05.323Z,4.40
2023-06-18T22:36:33.588Z,5.00
2023-06-18T22:39:01.880Z,4.50
2023-06-18T22:41:30.226Z,5.60
2023-06-18T22:43:58.571Z,4.70
2023-06-18T22:46:26.955Z,5.20
2023-06-18T22:48:55.334Z,5.50
2023-06-18T22:51:23.542Z,6.80
2023-06-18T22:53:51.809Z,4.70
2023-06-18T22:56:20.140Z,4.40
2023-06-18T22:58:49.840Z,4.50
2023-06-18T23:01:18.117Z,4.00
2023-06-18T23:03:46.347Z,4.30
2023-06-18T23:06:14.862Z,5.00
2023-06-18T23:08:43.055Z,4.80
2023-06-18T23:11:11.418Z,5.10
2023-06-18T23:13:39.775Z,3.80
2023-06-18T23:16:08.177Z,4.20
2023-06-18T23:18:36.438Z,7.00
2023-06-18T23:21:05.420Z,4.20
2023-06-18T23:23:33.661Z,3.80
2023-06-18T23:26:01.909Z,5.40
2023-06-18T23:28:30.710Z,3.70
2023-06-18T23:31:05.200Z,4.40
2023-06-18T23:33:33.907Z,3.20
2023-06-18T23:36:03.395Z,3.50
2023-06-18T23:38:31.837Z,8.60
2023-06-18T23:41:00.133Z,3.20
2023-06-18T23:43:28.444Z,5.00
2023-06-18T23:45:56.722Z,2.90
2023-06-18T23:48:25.088Z,4.90
2023-06-18T23:50:53.532Z,3.50
2023-06-18T23:53:21.932Z,3.20
2023-06-18T23:55:50.343Z,3.00
2023-06-18T23:58:19.147Z,3.30
